Time;durP1;ratioP1;P1;durP2;ratioP2;P2;SDS_P1;SDS_P2;PMS_P1;PMS_P2;Temp;Humidity;BMP_temperature;BMP_pressure;BME280_temperature;BME280_humidity;BME280_pressure;Samples;Min_cycle;Max_cycle;Signal;HPM_P1;HPM_P2
2022/01/09 00:00:40;;;;;;;;;;;1.40;97.40;;;;;;5063272;28;20171;-64
2022/01/09 00:03:06;;;;;;;;;;;1.40;97.40;;;;;;5062497;28;19915;-64
2022/01/09 00:05:32;;;;;;;;;;;1.40;97.40;;;;;;5062959;28;20146;-64
2022/01/09 00:07:58;;;;;;;;;;;1.40;97.40;;;;;;5063261;28;19909;-65
2022/01/09 00:10:26;;;;;;;;;;;1.40;97.30;;;;;;5062632;28;19909;-65
2022/01/09 00:12:51;;;;;;;;;;;1.40;97.20;;;;;;5063231;28;19908;-65
2022/01/09 00:15:17;;;;;;;;;;;1.50;97.30;;;;;;5062858;28;20235;-64
2022/01/09 00:17:43;;;;;;;;;;;1.40;97.30;;;;;;5062894;28;19917;-64
2022/01/09 00:20:10;;;;;;;;;;;1.40;97.30;;;;;;5062331;28;19913;-64
2022/01/09 00:22:44;;;;;;;;;;;1.50;97.20;;;;;;5063143;28;19909;-64
2022/01/09 00:25:10;;;;;;;;;;;1.50;97.30;;;;;;5061274;28;19909;-65
2022/01/09 00:27:36;;;;;;;;;;;1.40;97.50;;;;;;5062970;28;19909;-64
2022/01/09 00:30:04;;;;;;;;;;;1.40;97.50;;;;;;5062623;28;19987;-64
2022/01/09 00:32:30;;;;;;;;;;;1.40;97.70;;;;;;5062688;28;19917;-66
2022/01/09 00:34:55;;;;;;;;;;;1.40;98.00;;;;;;5062751;28;19916;-65
2022/01/09 00:37:21;;;;;;;;;;;1.40;98.10;;;;;;5062988;28;20205;-64
2022/01/09 00:39:46;;;;;;;;;;;1.40;98.00;;;;;;5062840;28;19909;-64
2022/01/09 00:42:12;;;;;;;;;;;1.30;98.10;;;;;;5062801;28;19909;-65
2022/01/09 00:44:38;;;;;;;;;;;1.40;98.20;;;;;;5062160;28;20270;-65
2022/01/09 00:47:04;;;;;;;;;;;1.40;98.20;;;;;;5062707;28;19909;-65
2022/01/09 00:49:29;;;;;;;;;;;1.40;98.00;;;;;;5062840;28;19909;-65
2022/01/09 00:51:55;;;;;;;;;;;1.40;98.10;;;;;;5062665;28;19913;-65
2022/01/09 00:54:22;;;;;;;;;;;1.50;98.20;;;;;;5062530;28;19909;-65
2022/01/09 00:56:47;;;;;;;;;;;1.40;98.30;;;;;;5062698;28;19980;-65
2022/01/09 00:59:13;;;;;;;;;;;1.40;98.40;;;;;;5062733;28;19908;-64
2022/01/09 01:01:38;;;;;;;;;;;1.50;98.40;;;;;;5062663;28;19944;-67
2022/01/09 01:04:04;;;;;;;;;;;1.50;98.40;;;;;;5062350;28;19909;-68
2022/01/09 01:06:30;;;;;;;;;;;1.50;98.20;;;;;;5062508;28;20071;-65
2022/01/09 01:08:56;;;;;;;;;;;1.60;98.00;;;;;;5062545;28;19939;-65
2022/01/09 01:11:22;;;;;;;;;;;1.60;97.90;;;;;;5062434;28;19979;-65
2022/01/09 01:13:48;;;;;;;;;;;1.60;97.90;;;;;;5062482;28;19909;-64
2022/01/09 01:16:13;;;;;;;;;;;1.60;98.00;;;;;;5062327;28;19916;-65
2022/01/09 01:18:43;;;;;;;;;;;1.50;98.20;;;;;;5062315;28;20172;-65
2022/01/09 01:21:08;;;;;;;;;;;1.50;98.20;;;;;;5062259;28;20218;-65
2022/01/09 01:23:34;;;;;;;;;;;1.50;98.30;;;;;;5064815;28;19912;-65
2022/01/09 01:26:02;;;;;;;;;;;1.50;98.20;;;;;;5065975;28;20267;-66
2022/01/09 01:28:28;;;;;;;;;;;1.50;98.40;;;;;;5066248;28;19909;-65
2022/01/09 01:30:54;;;;;;;;;;;1.50;98.60;;;;;;5065970;28;20154;-65
2022/01/09 01:33:19;;;;;;;;;;;1.50;98.80;;;;;;5065927;28;19976;-65
2022/01/09 01:35:45;;;;;;;;;;;1.50;98.90;;;;;;5065829;28;19915;-65
2022/01/09 01:38:11;;;;;;;;;;;1.50;98.90;;;;;;5065978;28;19936;-65
2022/01/09 01:40:36;;;;;;;;;;;1.50;99.00;;;;;;5066006;28;19915;-64
2022/01/09 01:43:02;;;;;;;;;;;1.50;99.00;;;;;;5065985;28;19916;-65
2022/01/09 01:45:28;;;;;;;;;;;1.50;99.10;;;;;;5065639;28;20067;-65
2022/01/09 01:47:53;;;;;;;;;;;1.40;99.10;;;;;;5065702;28;20226;-66
2022/01/09 01:50:20;;;;;;;;;;;1.40;99.20;;;;;;5065596;28;19959;-66
2022/01/09 01:52:49;;;;;;;;;;;1.40;99.20;;;;;;5065592;28;19913;-66
2022/01/09 01:55:15;;;;;;;;;;;1.40;99.30;;;;;;5065691;28;19962;-65
2022/01/09 01:57:41;;;;;;;;;;;1.40;99.50;;;;;;5065672;28;19919;-66
2022/01/09 02:00:09;;;;;;;;;;;1.40;99.50;;;;;;5063298;28;19912;-66
2022/01/09 02:02:34;;;;;;;;;;;1.40;99.50;;;;;;5045815;28;19909;-66
2022/01/09 02:05:00;;;;;;;;;;;1.40;99.50;;;;;;5056179;28;19927;-66
2022/01/09 02:07:27;;;;;;;;;;;1.40;99.50;;;;;;5064332;28;20222;-65
2022/01/09 02:09:53;;;;;;;;;;;1.40;99.60;;;;;;5063835;28;19963;-66
2022/01/09 02:12:19;;;;;;;;;;;1.30;99.70;;;;;;5063535;28;19913;-66
2022/01/09 02:14:47;;;;;;;;;;;1.40;99.70;;;;;;5064336;28;19947;-65
2022/01/09 02:17:17;;;;;;;;;;;1.40;99.80;;;;;;5064335;28;19915;-65
2022/01/09 02:19:56;;;;;;;;;;;1.40;99.80;;;;;;5063461;28;19946;-65
2022/01/09 02:22:30;;;;;;;;;;;1.40;99.80;;;;;;5063651;28;19912;-66
2022/01/09 02:24:56;;;;;;;;;;;1.40;99.90;;;;;;5063643;28;19909;-66
2022/01/09 02:27:22;;;;;;;;;;;1.30;99.90;;;;;;5047135;28;19909;-66
2022/01/09 02:29:48;;;;;;;;;;;1.30;99.90;;;;;;5063166;28;19908;-66
2022/01/09 02:32:16;;;;;;;;;;;1.30;99.90;;;;;;5063028;28;19917;-65
2022/01/09 02:34:51;;;;;;;;;;;1.30;99.90;;;;;;5064036;28;20108;-66
2022/01/09 02:37:16;;;;;;;;;;;1.20;99.90;;;;;;5064703;28;19916;-66
2022/01/09 02:39:42;;;;;;;;;;;1.20;99.90;;;;;;5064843;28;20103;-66
2022/01/09 02:42:18;;;;;;;;;;;1.20;99.90;;;;;;5064726;28;19915;-67
2022/01/09 02:44:44;;;;;;;;;;;1.20;99.90;;;;;;5064589;28;20179;-65
2022/01/09 02:47:10;;;;;;;;;;;1.20;99.90;;;;;;5063851;28;19909;-66
2022/01/09 02:49:35;;;;;;;;;;;1.10;99.90;;;;;;5064386;28;20017;-66
2022/01/09 02:52:09;;;;;;;;;;;1.10;99.90;;;;;;5064112;28;19913;-65
2022/01/09 02:57:18;;;;;;;;;;;1.20;99.90;;;;;;5064395;28;20223;-66
2022/01/09 02:59:44;;;;;;;;;;;1.20;99.90;;;;;;5064462;28;19909;-65
2022/01/09 03:02:10;;;;;;;;;;;1.20;99.90;;;;;;5064044;28;19913;-66
2022/01/09 03:04:35;;;;;;;;;;;1.20;99.90;;;;;;5063768;28;19909;-66
2022/01/09 03:07:01;;;;;;;;;;;1.20;99.90;;;;;;5064193;28;20208;-66
2022/01/09 03:09:27;;;;;;;;;;;1.20;99.90;;;;;;5062189;28;19980;-66
2022/01/09 03:11:52;;;;;;;;;;;1.20;99.90;;;;;;5057791;28;20365;-65
2022/01/09 03:14:18;;;;;;;;;;;1.20;99.90;;;;;;5063016;28;19916;-65
2022/01/09 03:16:44;;;;;;;;;;;1.20;99.90;;;;;;5063715;28;20016;-65
2022/01/09 03:19:10;;;;;;;;;;;1.30;99.90;;;;;;5063675;28;19908;-65
2022/01/09 03:21:35;;;;;;;;;;;1.30;99.90;;;;;;5063920;28;20148;-66
2022/01/09 03:24:01;;;;;;;;;;;1.30;99.90;;;;;;5063466;28;19917;-65
2022/01/09 03:26:27;;;;;;;;;;;1.30;99.90;;;;;;5063619;28;19916;-66
2022/01/09 03:28:52;;;;;;;;;;;1.30;99.90;;;;;;5063704;28;20241;-66
2022/01/09 03:31:18;;;;;;;;;;;1.40;99.90;;;;;;5062730;28;19947;-65
2022/01/09 03:33:44;;;;;;;;;;;1.40;99.90;;;;;;5061626;28;19954;-65
2022/01/09 03:36:09;;;;;;;;;;;1.40;99.90;;;;;;5061678;28;19908;-66
2022/01/09 03:38:35;;;;;;;;;;;1.40;99.90;;;;;;5063633;28;19912;-66
2022/01/09 03:41:00;;;;;;;;;;;1.40;99.90;;;;;;5063492;28;19919;-66
2022/01/09 03:43:26;;;;;;;;;;;1.40;99.90;;;;;;5063060;28;19916;-66
2022/01/09 03:45:52;;;;;;;;;;;1.40;99.90;;;;;;5062794;28;19943;-65
2022/01/09 03:48:17;;;;;;;;;;;1.40;99.90;;;;;;5062511;28;20004;-66
2022/01/09 03:50:49;;;;;;;;;;;1.40;99.90;;;;;;5062533;28;19913;-66
2022/01/09 03:53:15;;;;;;;;;;;1.50;99.90;;;;;;5063322;28;20093;-65
2022/01/09 03:55:41;;;;;;;;;;;1.40;99.90;;;;;;5062582;28;19944;-66
2022/01/09 03:58:07;;;;;;;;;;;1.50;99.90;;;;;;5063278;28;19909;-66
2022/01/09 04:00:32;;;;;;;;;;;1.50;99.90;;;;;;5045416;28;19936;-65
2022/01/09 04:02:58;;;;;;;;;;;1.50;99.90;;;;;;5052841;28;20116;-65
2022/01/09 04:05:24;;;;;;;;;;;1.60;99.90;;;;;;5055475;28;19908;-65
2022/01/09 04:07:50;;;;;;;;;;;1.60;99.90;;;;;;5058227;28;20112;-65
2022/01/09 04:10:18;;;;;;;;;;;1.60;99.90;;;;;;5062728;28;19909;-65
2022/01/09 04:12:49;;;;;;;;;;;1.60;99.90;;;;;;5073452;22;19925;-66
2022/01/09 04:15:15;;;;;;;;;;;1.60;99.90;;;;;;5062222;28;19928;-66
2022/01/09 04:17:51;;;;;;;;;;;1.70;99.90;;;;;;5062034;28;19909;-66
2022/01/09 04:20:18;;;;;;;;;;;1.70;99.90;;;;;;5043137;28;20226;-67
2022/01/09 04:22:44;;;;;;;;;;;1.70;99.90;;;;;;5057880;28;19908;-66
2022/01/09 04:25:10;;;;;;;;;;;1.70;99.90;;;;;;5062444;28;20103;-66
2022/01/09 04:27:36;;;;;;;;;;;1.70;99.90;;;;;;5062801;28;20203;-66
2022/01/09 04:30:02;;;;;;;;;;;1.80;99.90;;;;;;5061548;28;20084;-66
2022/01/09 04:32:28;;;;;;;;;;;1.70;99.90;;;;;;5059573;28;19912;-66
2022/01/09 04:34:54;;;;;;;;;;;1.80;99.90;;;;;;5062065;28;19958;-66
2022/01/09 04:37:20;;;;;;;;;;;1.80;99.90;;;;;;5062383;28;19909;-66
2022/01/09 04:39:50;;;;;;;;;;;1.80;99.90;;;;;;5062878;28;19938;-66
2022/01/09 04:42:16;;;;;;;;;;;1.80;99.90;;;;;;5062718;28;19924;-66
2022/01/09 04:44:42;;;;;;;;;;;1.80;99.90;;;;;;5062442;28;20115;-66
2022/01/09 04:47:12;;;;;;;;;;;1.90;99.90;;;;;;5062579;28;19972;-66
2022/01/09 04:49:41;;;;;;;;;;;1.90;99.90;;;;;;5062295;28;19908;-66
2022/01/09 04:52:10;;;;;;;;;;;1.90;99.90;;;;;;5062254;28;19908;-66
2022/01/09 04:54:35;;;;;;;;;;;1.90;99.90;;;;;;5062234;28;19912;-66
2022/01/09 04:57:02;;;;;;;;;;;2.00;99.90;;;;;;5065387;28;20218;-66
2022/01/09 04:59:30;;;;;;;;;;;2.00;99.90;;;;;;5065275;28;19908;-66
2022/01/09 05:01:56;;;;;;;;;;;2.00;99.90;;;;;;5066537;28;19916;-67
2022/01/09 05:04:22;;;;;;;;;;;2.00;99.90;;;;;;5066259;28;20006;-70
2022/01/09 05:06:47;;;;;;;;;;;2.00;99.90;;;;;;5066358;28;19909;-68
2022/01/09 05:09:13;;;;;;;;;;;2.00;99.90;;;;;;5066549;28;20193;-69
2022/01/09 05:11:38;;;;;;;;;;;2.10;99.90;;;;;;5066269;28;19912;-68
2022/01/09 05:14:04;;;;;;;;;;;2.10;99.90;;;;;;5066476;28;19916;-67
2022/01/09 05:16:30;;;;;;;;;;;2.10;99.90;;;;;;5066199;28;19944;-68
2022/01/09 05:19:03;;;;;;;;;;;2.10;99.90;;;;;;5066424;28;19908;-69
2022/01/09 05:21:29;;;;;;;;;;;2.10;99.90;;;;;;5066067;28;19917;-67
2022/01/09 05:23:54;;;;;;;;;;;2.20;99.90;;;;;;5065087;28;19908;-67
2022/01/09 05:26:20;;;;;;;;;;;2.20;99.90;;;;;;5066013;28;19917;-67
2022/01/09 05:28:46;;;;;;;;;;;2.20;99.90;;;;;;5066244;28;20007;-68
2022/01/09 05:31:11;;;;;;;;;;;2.30;99.90;;;;;;5066068;28;19947;-67
2022/01/09 05:33:37;;;;;;;;;;;2.20;99.90;;;;;;5066189;28;20212;-68
2022/01/09 05:36:03;;;;;;;;;;;2.30;99.90;;;;;;5065748;28;19975;-68
2022/01/09 05:38:29;;;;;;;;;;;2.30;99.90;;;;;;5066006;28;19916;-68
2022/01/09 05:40:54;;;;;;;;;;;2.20;99.90;;;;;;5065958;28;19951;-68
2022/01/09 05:43:20;;;;;;;;;;;2.30;99.90;;;;;;5065939;28;19909;-68
2022/01/09 05:45:46;;;;;;;;;;;2.30;99.90;;;;;;5065618;28;20234;-68
2022/01/09 05:48:11;;;;;;;;;;;2.30;99.90;;;;;;5065781;28;20107;-68
2022/01/09 05:50:37;;;;;;;;;;;2.30;99.90;;;;;;5063937;28;19913;-68
2022/01/09 05:53:03;;;;;;;;;;;2.40;99.90;;;;;;5065407;28;19913;-68
2022/01/09 05:55:30;;;;;;;;;;;2.40;99.90;;;;;;5065515;28;20204;-68
2022/01/09 05:57:56;;;;;;;;;;;2.40;99.90;;;;;;5064590;28;19943;-68
2022/01/09 06:00:21;;;;;;;;;;;2.40;99.90;;;;;;5065611;28;20202;-67
2022/01/09 06:02:47;;;;;;;;;;;2.50;99.90;;;;;;5065505;28;20023;-68
2022/01/09 06:05:13;;;;;;;;;;;2.40;99.90;;;;;;5065160;28;19913;-68
2022/01/09 06:07:39;;;;;;;;;;;2.50;99.90;;;;;;5064518;28;19909;-68
2022/01/09 06:10:06;;;;;;;;;;;2.50;99.90;;;;;;5065480;28;19982;-68
2022/01/09 06:12:31;;;;;;;;;;;2.50;99.90;;;;;;5065232;28;20218;-68
2022/01/09 06:14:57;;;;;;;;;;;2.50;99.90;;;;;;5064051;28;19913;-68
2022/01/09 06:17:23;;;;;;;;;;;2.50;99.90;;;;;;5065193;28;19916;-68
2022/01/09 06:19:48;;;;;;;;;;;2.60;99.90;;;;;;5065203;28;19909;-68
2022/01/09 06:22:18;;;;;;;;;;;2.60;99.90;;;;;;5064855;28;19954;-68
2022/01/09 06:24:47;;;;;;;;;;;2.60;99.90;;;;;;5064407;28;19908;-68
2022/01/09 06:27:13;;;;;;;;;;;2.60;99.90;;;;;;5065230;28;19915;-68
2022/01/09 06:29:39;;;;;;;;;;;2.70;99.90;;;;;;5065044;28;20092;-69
2022/01/09 06:32:06;;;;;;;;;;;2.70;99.90;;;;;;5064904;28;19915;-68
2022/01/09 06:34:31;;;;;;;;;;;2.80;99.90;;;;;;5063693;28;19955;-68
2022/01/09 06:36:57;;;;;;;;;;;2.70;99.90;;;;;;5064692;28;19913;-67
2022/01/09 06:39:23;;;;;;;;;;;2.70;99.90;;;;;;5064890;28;20238;-67
2022/01/09 06:41:49;;;;;;;;;;;2.70;99.90;;;;;;5063806;28;19913;-67
2022/01/09 06:44:14;;;;;;;;;;;2.70;99.90;;;;;;5064926;28;19915;-67
2022/01/09 06:46:40;;;;;;;;;;;2.80;99.90;;;;;;5064667;28;19908;-67
2022/01/09 06:49:06;;;;;;;;;;;2.80;99.90;;;;;;5064712;28;19909;-68
2022/01/09 06:51:31;;;;;;;;;;;2.80;99.90;;;;;;5064203;28;20181;-68
2022/01/09 06:53:57;;;;;;;;;;;2.90;99.90;;;;;;5064555;28;19958;-68
2022/01/09 06:56:23;;;;;;;;;;;2.90;99.90;;;;;;5064697;28;19909;-67
2022/01/09 06:58:48;;;;;;;;;;;2.90;99.90;;;;;;5064457;28;19908;-68
2022/01/09 07:01:14;;;;;;;;;;;2.90;99.90;;;;;;5064215;28;19909;-68
2022/01/09 07:03:39;;;;;;;;;;;2.90;99.90;;;;;;5064511;28;20099;-68
2022/01/09 07:06:05;;;;;;;;;;;2.90;99.90;;;;;;5063795;28;20204;-68
2022/01/09 07:08:33;;;;;;;;;;;2.90;99.90;;;;;;5064285;28;19909;-68
2022/01/09 07:11:00;;;;;;;;;;;2.90;99.90;;;;;;5064006;28;20152;-68
2022/01/09 07:13:26;;;;;;;;;;;2.80;99.90;;;;;;5063192;28;19920;-68
2022/01/09 07:15:51;;;;;;;;;;;3.00;99.90;;;;;;5063811;28;19909;-69
2022/01/09 07:18:17;;;;;;;;;;;3.00;99.90;;;;;;5062460;28;19908;-68
2022/01/09 07:20:43;;;;;;;;;;;3.10;99.90;;;;;;5063545;28;19908;-68
2022/01/09 07:23:09;;;;;;;;;;;3.20;99.90;;;;;;5063739;28;19909;-68
2022/01/09 07:25:34;;;;;;;;;;;3.30;99.90;;;;;;5064165;28;19944;-68
2022/01/09 07:28:02;;;;;;;;;;;3.40;99.90;;;;;;5083285;28;20299;-68
2022/01/09 07:30:28;;;;;;;;;;;3.50;99.50;;;;;;5083800;28;19909;-68
2022/01/09 07:32:54;;;;;;;;;;;3.50;99.30;;;;;;5083614;28;19908;-68
2022/01/09 07:35:20;;;;;;;;;;;3.50;99.20;;;;;;5083537;28;19975;-68
2022/01/09 07:37:46;;;;;;;;;;;3.50;99.20;;;;;;5083286;28;19915;-68
2022/01/09 07:40:12;;;;;;;;;;;3.50;99.30;;;;;;5082409;28;19908;-68
2022/01/09 07:42:38;;;;;;;;;;;3.50;99.40;;;;;;5083803;28;19912;-68
2022/01/09 07:45:06;;;;;;;;;;;3.50;99.50;;;;;;5083301;28;20218;-68
2022/01/09 07:47:35;;;;;;;;;;;3.40;99.50;;;;;;5083429;28;19908;-68
2022/01/09 07:50:02;;;;;;;;;;;3.40;99.80;;;;;;5083472;28;19908;-68
2022/01/09 07:52:28;;;;;;;;;;;3.40;99.50;;;;;;5083064;28;19908;-68
2022/01/09 07:54:53;;;;;;;;;;;3.40;99.20;;;;;;5063318;28;19947;-68
2022/01/09 07:57:20;;;;;;;;;;;3.40;98.90;;;;;;5063212;28;19917;-68
2022/01/09 07:59:45;;;;;;;;;;;3.40;98.90;;;;;;5063317;28;19940;-68
2022/01/09 08:02:11;;;;;;;;;;;3.40;99.10;;;;;;5063250;28;19958;-68
2022/01/09 08:04:37;;;;;;;;;;;3.30;99.10;;;;;;5062995;28;19909;-68
2022/01/09 08:07:03;;;;;;;;;;;3.30;98.70;;;;;;5062422;28;19944;-68
2022/01/09 08:09:29;;;;;;;;;;;3.30;98.50;;;;;;5063044;28;19980;-68
2022/01/09 08:11:55;;;;;;;;;;;3.30;98.50;;;;;;5062942;28;19912;-68
2022/01/09 08:14:21;;;;;;;;;;;3.30;98.70;;;;;;5063016;28;19983;-67
2022/01/09 08:16:47;;;;;;;;;;;3.30;98.70;;;;;;5063076;28;19908;-67
2022/01/09 08:19:12;;;;;;;;;;;3.20;98.60;;;;;;5062397;28;19947;-68
2022/01/09 08:21:38;;;;;;;;;;;3.20;98.70;;;;;;5062601;28;19916;-67
2022/01/09 08:24:04;;;;;;;;;;;3.20;98.50;;;;;;5062574;28;19951;-67
2022/01/09 08:26:30;;;;;;;;;;;3.20;98.30;;;;;;5062921;28;19908;-67
2022/01/09 08:28:56;;;;;;;;;;;3.20;98.10;;;;;;5062707;28;20151;-68
2022/01/09 08:31:22;;;;;;;;;;;3.10;98.50;;;;;;5062175;28;19920;-68
2022/01/09 08:33:48;;;;;;;;;;;3.20;98.10;;;;;;5062843;28;19916;-68
2022/01/09 08:36:13;;;;;;;;;;;3.20;98.10;;;;;;5050629;28;20152;-74
2022/01/09 08:38:39;;;;;;;;;;;3.10;98.20;;;;;;5025101;28;19924;-74
2022/01/09 08:41:05;;;;;;;;;;;3.20;98.20;;;;;;5061390;28;19916;-75
2022/01/09 08:43:34;;;;;;;;;;;3.20;98.20;;;;;;5082570;28;19908;-73
2022/01/09 08:45:59;;;;;;;;;;;3.20;98.00;;;;;;5081536;28;20138;-73
2022/01/09 08:48:25;;;;;;;;;;;3.20;98.10;;;;;;5074434;28;19915;-74
2022/01/09 08:50:51;;;;;;;;;;;3.20;98.30;;;;;;5044788;28;19976;-74
2022/01/09 08:53:17;;;;;;;;;;;3.20;98.10;;;;;;5062048;28;19913;-74
2022/01/09 08:55:42;;;;;;;;;;;3.20;98.00;;;;;;5061352;28;19944;-73
2022/01/09 08:58:08;;;;;;;;;;;3.20;98.20;;;;;;5061122;28;20222;-73
2022/01/09 09:00:33;;;;;;;;;;;3.30;97.90;;;;;;5061183;28;19947;-73
2022/01/09 09:02:59;;;;;;;;;;;3.30;98.10;;;;;;5062058;28;20227;-74
2022/01/09 09:05:25;;;;;;;;;;;3.30;98.00;;;;;;5061769;28;19909;-73
2022/01/09 09:07:51;;;;;;;;;;;3.30;97.70;;;;;;5061475;28;19916;-74
2022/01/09 09:10:16;;;;;;;;;;;3.30;97.80;;;;;;5061668;28;19932;-76
2022/01/09 09:12:42;;;;;;;;;;;3.30;98.00;;;;;;5061478;28;20093;-74
2022/01/09 09:15:08;;;;;;;;;;;3.40;97.90;;;;;;5044115;28;19913;-71
2022/01/09 09:17:33;;;;;;;;;;;3.30;97.70;;;;;;5061319;28;19915;-75
2022/01/09 09:19:59;;;;;;;;;;;3.40;98.10;;;;;;5026267;28;19909;-76
2022/01/09 09:22:25;;;;;;;;;;;3.40;97.70;;;;;;5040772;28;20241;-77
2022/01/09 09:24:51;;;;;;;;;;;3.30;97.90;;;;;;5052666;28;20148;-77
2022/01/09 09:27:18;;;;;;;;;;;3.30;98.00;;;;;;5060840;28;20103;-76
2022/01/09 09:29:44;;;;;;;;;;;3.30;98.00;;;;;;5060695;28;19916;-77
2022/01/09 09:32:10;;;;;;;;;;;3.40;98.10;;;;;;5044336;28;19940;-71
2022/01/09 09:34:36;;;;;;;;;;;3.40;98.00;;;;;;5061697;28;19913;-71
2022/01/09 09:37:02;;;;;;;;;;;3.40;98.10;;;;;;5062135;28;20191;-71
2022/01/09 09:39:27;;;;;;;;;;;3.40;97.90;;;;;;5061811;28;20010;-70
2022/01/09 09:41:53;;;;;;;;;;;3.30;98.10;;;;;;5060860;28;20112;-70
2022/01/09 09:44:19;;;;;;;;;;;3.40;98.00;;;;;;5064378;28;19972;-70
2022/01/09 09:46:49;;;;;;;;;;;3.40;97.90;;;;;;5065490;28;19908;-70
2022/01/09 09:49:15;;;;;;;;;;;3.40;98.00;;;;;;5063652;28;19920;-74
2022/01/09 09:51:41;;;;;;;;;;;3.30;98.40;;;;;;5047808;28;19946;-73
2022/01/09 09:54:07;;;;;;;;;;;3.30;98.30;;;;;;5065019;28;19936;-75
2022/01/09 09:56:33;;;;;;;;;;;3.40;97.90;;;;;;5063702;28;19916;-74
2022/01/09 09:58:59;;;;;;;;;;;3.40;98.20;;;;;;5031531;28;19908;-72
2022/01/09 10:01:32;;;;;;;;;;;3.30;98.40;;;;;;5064405;28;19909;-65
2022/01/09 10:04:03;;;;;;;;;;;3.30;98.10;;;;;;5065488;28;19913;-71
2022/01/09 10:06:42;;;;;;;;;;;3.30;98.10;;;;;;5062894;28;20073;-71
2022/01/09 10:09:18;;;;;;;;;;;3.30;97.90;;;;;;5063211;28;20179;-74
2022/01/09 10:11:51;;;;;;;;;;;3.30;98.40;;;;;;5063090;28;20108;-75
2022/01/09 10:14:22;;;;;;;;;;;3.30;98.60;;;;;;5065203;28;19917;-74
2022/01/09 10:17:18;;;;;;;;;;;3.20;98.40;;;;;;5082036;23;20538;-72
2022/01/09 10:19:44;;;;;;;;;;;3.30;98.50;;;;;;5060184;28;19944;-71
2022/01/09 10:22:28;;;;;;;;;;;3.30;98.20;;;;;;5054799;28;19955;-72
2022/01/09 10:24:55;;;;;;;;;;;3.40;98.20;;;;;;5051056;28;19959;-71
2022/01/09 10:27:35;;;;;;;;;;;3.40;98.00;;;;;;5052880;28;19913;-68
2022/01/09 10:30:03;;;;;;;;;;;3.40;97.70;;;;;;5054235;28;19920;-70
2022/01/09 10:32:29;;;;;;;;;;;3.40;98.00;;;;;;5052429;28;19944;-69
2022/01/09 10:35:03;;;;;;;;;;;3.30;98.30;;;;;;5046242;28;19912;-68
2022/01/09 10:37:29;;;;;;;;;;;3.40;98.40;;;;;;5044581;28;19917;-69
2022/01/09 10:39:57;;;;;;;;;;;3.40;98.30;;;;;;5043154;28;19913;-70
2022/01/09 10:42:23;;;;;;;;;;;3.40;98.50;;;;;;5044214;28;19916;-70
2022/01/09 10:44:48;;;;;;;;;;;3.40;98.60;;;;;;5043085;28;19911;-68
2022/01/09 10:47:16;;;;;;;;;;;3.50;98.60;;;;;;5043406;28;19913;-70
2022/01/09 10:49:44;;;;;;;;;;;3.40;98.30;;;;;;5053095;28;19909;-73
2022/01/09 10:52:18;;;;;;;;;;;3.50;98.50;;;;;;5064496;28;19988;-71
2022/01/09 10:54:46;;;;;;;;;;;3.50;98.40;;;;;;5063755;28;20147;-69
2022/01/09 10:57:17;;;;;;;;;;;3.50;98.10;;;;;;5064077;28;20018;-69
2022/01/09 10:59:43;;;;;;;;;;;3.50;98.40;;;;;;5062503;28;19908;-69
2022/01/09 11:02:10;;;;;;;;;;;3.50;98.40;;;;;;5064264;28;19909;-69
2022/01/09 11:04:36;;;;;;;;;;;3.40;98.50;;;;;;5064273;28;19931;-68
2022/01/09 11:07:02;;;;;;;;;;;3.40;98.50;;;;;;5063402;28;19936;-68
2022/01/09 11:09:30;;;;;;;;;;;3.40;98.70;;;;;;5062937;28;19908;-69
2022/01/09 11:11:55;;;;;;;;;;;3.40;99.00;;;;;;5064164;28;19913;-68
2022/01/09 11:14:22;;;;;;;;;;;3.40;99.10;;;;;;5063699;28;20280;-68
2022/01/09 11:16:51;;;;;;;;;;;3.30;98.90;;;;;;5046162;28;19959;-68
2022/01/09 11:19:22;;;;;;;;;;;3.40;98.70;;;;;;5063363;28;19909;-70
2022/01/09 11:21:49;;;;;;;;;;;3.40;99.10;;;;;;5063939;28;19915;-68
2022/01/09 11:24:21;;;;;;;;;;;3.40;98.70;;;;;;5063058;28;19983;-68
2022/01/09 11:27:14;;;;;;;;;;;3.50;98.90;;;;;;5054935;28;19959;-68
2022/01/09 11:29:55;;;;;;;;;;;3.50;99.00;;;;;;5059631;28;20038;-70
2022/01/09 11:32:45;;;;;;;;;;;3.50;98.80;;;;;;5062615;28;19958;-72
2022/01/09 11:35:14;;;;;;;;;;;3.50;98.70;;;;;;5063492;28;20204;-69
2022/01/09 11:37:50;;;;;;;;;;;3.50;98.80;;;;;;5063456;28;19909;-70
2022/01/09 11:40:24;;;;;;;;;;;3.50;98.80;;;;;;5061980;28;19909;-73
2022/01/09 11:43:28;;;;;;;;;;;3.40;99.10;;;;;;5062062;28;19928;-72
2022/01/09 11:45:57;;;;;;;;;;;3.50;99.00;;;;;;5061133;28;19913;-70
2022/01/09 11:48:42;;;;;;;;;;;3.50;99.00;;;;;;5063661;28;20529;-70
2022/01/09 11:51:09;;;;;;;;;;;3.50;99.10;;;;;;5062305;28;19917;-70
2022/01/09 11:53:56;;;;;;;;;;;3.50;99.00;;;;;;5063253;28;19909;-70
2022/01/09 11:56:44;;;;;;;;;;;3.60;98.90;;;;;;5062744;28;19909;-72
2022/01/09 11:59:22;;;;;;;;;;;3.60;98.60;;;;;;5059221;28;20273;-71
2022/01/09 12:01:53;;;;;;;;;;;3.60;98.40;;;;;;5062871;28;20256;-72
2022/01/09 12:04:30;;;;;;;;;;;3.60;98.60;;;;;;5045150;28;19959;-71
2022/01/09 12:07:13;;;;;;;;;;;3.70;98.50;;;;;;5062760;28;19917;-71
2022/01/09 12:09:49;;;;;;;;;;;3.60;98.60;;;;;;5061043;28;19909;-71
2022/01/09 12:12:16;;;;;;;;;;;3.60;98.70;;;;;;5061956;28;19913;-72
2022/01/09 12:14:44;;;;;;;;;;;3.60;98.60;;;;;;5062631;28;19979;-71
2022/01/09 12:17:22;;;;;;;;;;;3.70;98.70;;;;;;5060414;28;19982;-71
2022/01/09 12:20:11;;;;;;;;;;;3.70;98.70;;;;;;5060551;28;19909;-72
2022/01/09 12:22:46;;;;;;;;;;;3.80;98.60;;;;;;5042275;28;19909;-72
2022/01/09 12:27:54;;;;;;;;;;;3.80;98.60;;;;;;5061276;28;19908;-69
2022/01/09 12:30:51;;;;;;;;;;;3.80;98.50;;;;;;5062869;28;20177;-69
2022/01/09 12:33:27;;;;;;;;;;;3.90;98.20;;;;;;5062719;28;20112;-73
2022/01/09 12:36:06;;;;;;;;;;;3.80;97.70;;;;;;5060891;28;19962;-72
2022/01/09 12:38:43;;;;;;;;;;;3.90;97.80;;;;;;5061253;28;19979;-72
2022/01/09 12:41:16;;;;;;;;;;;3.90;97.60;;;;;;5045617;28;19944;-73
2022/01/09 12:43:42;;;;;;;;;;;4.00;97.60;;;;;;5045807;28;19909;-73
2022/01/09 12:46:09;;;;;;;;;;;4.10;97.20;;;;;;5060868;28;20031;-73
2022/01/09 12:48:34;;;;;;;;;;;4.20;97.10;;;;;;5060782;28;19931;-73
2022/01/09 12:51:14;;;;;;;;;;;4.30;97.00;;;;;;5043862;28;20159;-74
2022/01/09 12:53:42;;;;;;;;;;;4.50;95.90;;;;;;5024853;28;19947;-72
2022/01/09 12:56:12;;;;;;;;;;;4.60;95.70;;;;;;5040678;28;19909;-73
2022/01/09 12:58:37;;;;;;;;;;;4.70;95.00;;;;;;5042221;28;20294;-73
2022/01/09 13:01:12;;;;;;;;;;;4.70;94.90;;;;;;5049836;28;19919;-73
2022/01/09 13:03:39;;;;;;;;;;;4.70;94.90;;;;;;5062178;28;19909;-73
2022/01/09 13:06:07;;;;;;;;;;;4.80;94.50;;;;;;5043892;28;20089;-73
2022/01/09 13:08:42;;;;;;;;;;;4.70;94.60;;;;;;5060921;28;20204;-73
2022/01/09 13:11:12;;;;;;;;;;;4.90;94.50;;;;;;5060881;28;19913;-74
2022/01/09 13:13:39;;;;;;;;;;;5.00;94.60;;;;;;5044516;28;19947;-73
2022/01/09 13:16:18;;;;;;;;;;;4.90;94.40;;;;;;5060578;28;19908;-73
2022/01/09 13:18:49;;;;;;;;;;;4.90;94.40;;;;;;5065405;28;20208;-72
2022/01/09 13:21:19;;;;;;;;;;;4.70;94.20;;;;;;5063081;28;19916;-73
2022/01/09 13:24:10;;;;;;;;;;;4.60;94.30;;;;;;5065623;28;20207;-73
2022/01/09 13:26:48;;;;;;;;;;;4.60;94.30;;;;;;5064602;28;19954;-72
2022/01/09 13:29:15;;;;;;;;;;;4.50;94.60;;;;;;5064616;28;19909;-73
2022/01/09 13:31:45;;;;;;;;;;;4.50;94.90;;;;;;5065740;28;19948;-72
2022/01/09 13:34:15;;;;;;;;;;;4.50;94.80;;;;;;5064738;28;19908;-72
2022/01/09 13:36:46;;;;;;;;;;;4.50;94.40;;;;;;5048028;28;19908;-74
2022/01/09 13:39:18;;;;;;;;;;;4.50;94.40;;;;;;5065936;28;19940;-73
2022/01/09 13:41:50;;;;;;;;;;;4.50;94.40;;;;;;5064820;28;19995;-72
2022/01/09 13:44:23;;;;;;;;;;;4.50;94.50;;;;;;5048727;28;19915;-71
2022/01/09 13:47:14;;;;;;;;;;;4.40;94.30;;;;;;5048062;28;19948;-72
2022/01/09 13:49:46;;;;;;;;;;;4.40;94.70;;;;;;5063482;28;19908;-73
2022/01/09 13:52:18;;;;;;;;;;;4.40;94.30;;;;;;5065542;28;19916;-73
2022/01/09 13:54:44;;;;;;;;;;;4.40;94.30;;;;;;5064387;28;19915;-72
2022/01/09 13:57:12;;;;;;;;;;;4.40;94.30;;;;;;5047879;28;20279;-73
2022/01/09 13:59:48;;;;;;;;;;;4.40;94.40;;;;;;5066498;28;20217;-72
2022/01/09 14:02:15;;;;;;;;;;;4.40;94.30;;;;;;5062894;28;20092;-73
2022/01/09 14:04:41;;;;;;;;;;;4.50;94.20;;;;;;5047515;28;19976;-73
2022/01/09 14:07:19;;;;;;;;;;;4.50;93.90;;;;;;5064970;28;19915;-72
2022/01/09 14:09:51;;;;;;;;;;;4.50;93.60;;;;;;5054712;28;19932;-72
2022/01/09 14:12:20;;;;;;;;;;;4.60;93.90;;;;;;5052996;28;19917;-73
2022/01/09 14:14:46;;;;;;;;;;;4.50;93.50;;;;;;5055843;28;20203;-72
2022/01/09 14:17:34;;;;;;;;;;;4.50;93.40;;;;;;5063594;28;19912;-73
2022/01/09 14:20:16;;;;;;;;;;;4.50;93.50;;;;;;5061947;28;19925;-72
2022/01/09 14:22:55;;;;;;;;;;;4.40;93.80;;;;;;5064137;28;19940;-73
2022/01/09 14:25:28;;;;;;;;;;;4.40;94.10;;;;;;5062986;28;19909;-74
2022/01/09 14:27:55;;;;;;;;;;;4.40;93.60;;;;;;5076071;28;20277;-73
2022/01/09 14:30:25;;;;;;;;;;;4.40;93.60;;;;;;5063663;28;20159;-72
2022/01/09 14:33:21;;;;;;;;;;;4.40;93.80;;;;;;5063770;28;20247;-72
2022/01/09 14:35:49;;;;;;;;;;;4.40;93.80;;;;;;5046509;28;20116;-72
2022/01/09 14:38:19;;;;;;;;;;;4.30;93.90;;;;;;5062671;28;19928;-72
2022/01/09 14:40:55;;;;;;;;;;;4.30;94.00;;;;;;5047696;28;19916;-72
2022/01/09 14:43:23;;;;;;;;;;;4.30;94.40;;;;;;5047651;28;19909;-72